Aérodrome :
LOGIN :

S'inscrire | Disclaimer

   EN    FR    IT 

 










Légende :    VFR   VFR Marginal   IFR   IFR Intensif   IFR Très Intensif
Visi : 
Plafond : 
>= 8 km
>= 3000ft
5 à 8 km
1000 à 3000 ft
1500m à 5 km
500 à 1000 ft
800 à 1500m
200 à 500 ft
< 800m
< 200 ft
Symboles :   Orages  Brouillard  Fortes neiges  Fortes précipitations  Vent > 20 kt
SIGMETs :   Divers  Orages  Givrage  Turbulence  Onde Orograph.  Cendres Volcan.







- Altitude de l'aérodrome : 1017 ft
- Voir les cartes d'approche


LFSL - Brive Souillac

DERNIER METAR :
  • 210030Z AUTO 28015KT 4800 -DZ BR OVC005 11/11 Q1016

METARs EXPIRÉS :
  • 210000Z AUTO 29014KT 260V320 4300 -DZ BR OVC006 11/11 Q1016
  • 202330Z AUTO 28014KT 5000 -DZ BR BKN005 OVC010 11/11 Q1016
  • 202300Z AUTO 28014KT 240V310 4900 -DZ BR OVC005 11/11 Q1015
  • 202230Z AUTO 28012G24KT 230V310 5000 -RADZ BR OVC006 11/11 Q1015
  • 202200Z AUTO 28013KT 240V300 6000 -RA OVC006 11/11 Q1015
  • 202130Z AUTO 28015KT 240V310 4400 -RA BR OVC006 11/11 Q1015

TAF TAF LFSL
Valide du 20 à 18h jusqu'au 21 à 03h UTC


201700Z 2018/2103 28012G25KT 6000 -RADZ OVC006
TEMPO 2018/2103 3000 OVC003
Pas de NOTAMs connus pour ce terrain.
1 SIGMET publié pour la FIR Bordeaux (LFBB) :
 
Onde orographique forte
LFBB SIGMET 8 VALID 202300/210300 LFPW
LFBB BORDEAUX FIR/UIR SEV MTW FCST WI N4245 E00230 - N4215 E00230 - N4230 E00030 - N4300 E00030 - N4245 E00230 SFC/FL350 STNR NC=



MET'MAP, la Météo Aéronautique d'un coup d'oeil ! - Copyright ORBIFLY Décembre 2007 - Disclaimer

ORBIFLY MET'MAP TEAM :

Programmation & Développement : Alexandra Zaïnal
Conception & Développement : Baudouin d'Aumeries
Co-Programmation & Développement : Marc-Olivier Méhu
Soutien technique & logistique : Manuel Goepfert

Contact : metmap@orbifly.com




SOURCES & CREDITS :

   NOAA